sensor_id;sensor_type;location;lat;lon;timestamp;P1;durP1;ratioP1;P2;durP2;ratioP2
47401;SDS011;33155;48.370;-3.750;2022-09-30T06:02:30;0.32;;;0.22;;
47401;SDS011;33155;48.370;-3.750;2022-09-30T06:04:55;0.50;;;0.50;;
47401;SDS011;33155;48.370;-3.750;2022-09-30T06:07:21;0.75;;;0.40;;
47401;SDS011;33155;48.370;-3.750;2022-09-30T06:09:46;0.40;;;0.30;;
47401;SDS011;33155;48.370;-3.750;2022-09-30T06:12:12;0.98;;;0.52;;
47401;SDS011;33155;48.370;-3.750;2022-09-30T06:14:37;0.40;;;0.30;;
47401;SDS011;33155;48.370;-3.750;2022-09-30T06:17:03;0.98;;;0.52;;
47401;SDS011;33155;48.370;-3.750;2022-09-30T06:19:30;0.50;;;0.40;;
47401;SDS011;33155;48.370;-3.750;2022-09-30T06:21:56;0.80;;;0.55;;
47401;SDS011;33155;48.370;-3.750;2022-09-30T06:24:22;1.30;;;0.70;;
47401;SDS011;33155;48.370;-3.750;2022-09-30T06:26:47;1.60;;;0.43;;
47401;SDS011;33155;48.370;-3.750;2022-09-30T06:29:13;0.98;;;0.63;;
47401;SDS011;33155;48.370;-3.750;2022-09-30T06:31:38;0.80;;;0.55;;
47401;SDS011;33155;48.370;-3.750;2022-09-30T06:34:04;1.13;;;0.65;;
47401;SDS011;33155;48.370;-3.750;2022-09-30T06:36:31;0.93;;;0.60;;
47401;SDS011;33155;48.370;-3.750;2022-09-30T06:39:00;1.25;;;0.68;;
47401;SDS011;33155;48.370;-3.750;2022-09-30T06:41:27;1.33;;;0.60;;
47401;SDS011;33155;48.370;-3.750;2022-09-30T06:43:53;1.38;;;0.80;;
47401;SDS011;33155;48.370;-3.750;2022-09-30T06:46:19;1.05;;;0.57;;
47401;SDS011;33155;48.370;-3.750;2022-09-30T06:48:47;1.17;;;0.63;;
47401;SDS011;33155;48.370;-3.750;2022-09-30T06:51:13;1.08;;;0.63;;
47401;SDS011;33155;48.370;-3.750;2022-09-30T06:53:39;1.40;;;0.90;;
47401;SDS011;33155;48.370;-3.750;2022-09-30T06:56:04;1.08;;;0.70;;
47401;SDS011;33155;48.370;-3.750;2022-09-30T06:58:30;1.65;;;0.70;;
47401;SDS011;33155;48.370;-3.750;2022-09-30T07:00:59;0.90;;;0.70;;
47401;SDS011;33155;48.370;-3.750;2022-09-30T07:03:27;0.68;;;0.43;;
47401;SDS011;33155;48.370;-3.750;2022-09-30T07:05:56;0.88;;;0.60;;
47401;SDS011;33155;48.370;-3.750;2022-09-30T07:08:23;1.08;;;0.60;;
47401;SDS011;33155;48.370;-3.750;2022-09-30T07:10:56;0.55;;;0.43;;
47401;SDS011;33155;48.370;-3.750;2022-09-30T07:13:22;0.82;;;0.50;;
47401;SDS011;33155;48.370;-3.750;2022-09-30T07:15:47;0.80;;;0.47;;
47401;SDS011;33155;48.370;-3.750;2022-09-30T07:18:18;1.05;;;0.60;;
47401;SDS011;33155;48.370;-3.750;2022-09-30T07:20:47;0.80;;;0.50;;
47401;SDS011;33155;48.370;-3.750;2022-09-30T07:23:17;1.17;;;0.68;;
47401;SDS011;33155;48.370;-3.750;2022-09-30T07:25:52;1.55;;;0.70;;
47401;SDS011;33155;48.370;-3.750;2022-09-30T07:28:21;0.65;;;0.43;;
47401;SDS011;33155;48.370;-3.750;2022-09-30T07:30:56;1.60;;;0.80;;
47401;SDS011;33155;48.370;-3.750;2022-09-30T07:33:23;1.00;;;0.60;;
47401;SDS011;33155;48.370;-3.750;2022-09-30T07:35:50;0.88;;;0.50;;
47401;SDS011;33155;48.370;-3.750;2022-09-30T07:38:17;0.98;;;0.63;;
47401;SDS011;33155;48.370;-3.750;2022-09-30T07:40:53;0.95;;;0.47;;
47401;SDS011;33155;48.370;-3.750;2022-09-30T07:43:24;0.98;;;0.50;;
47401;SDS011;33155;48.370;-3.750;2022-09-30T07:45:52;1.25;;;0.60;;
47401;SDS011;33155;48.370;-3.750;2022-09-30T07:48:19;0.93;;;0.50;;
47401;SDS011;33155;48.370;-3.750;2022-09-30T07:51:05;1.17;;;0.60;;
47401;SDS011;33155;48.370;-3.750;2022-09-30T07:53:30;0.82;;;0.50;;
47401;SDS011;33155;48.370;-3.750;2022-09-30T07:56:01;1.10;;;0.60;;
47401;SDS011;33155;48.370;-3.750;2022-09-30T07:58:28;0.85;;;0.57;;
47401;SDS011;33155;48.370;-3.750;2022-09-30T08:00:53;1.00;;;0.68;;
47401;SDS011;33155;48.370;-3.750;2022-09-30T08:03:18;1.02;;;0.60;;
47401;SDS011;33155;48.370;-3.750;2022-09-30T08:05:44;0.73;;;0.45;;
47401;SDS011;33155;48.370;-3.750;2022-09-30T08:08:11;0.63;;;0.47;;
47401;SDS011;33155;48.370;-3.750;2022-09-30T08:10:37;1.20;;;0.70;;
47401;SDS011;33155;48.370;-3.750;2022-09-30T08:13:02;1.63;;;0.70;;
47401;SDS011;33155;48.370;-3.750;2022-09-30T08:15:28;0.95;;;0.65;;
47401;SDS011;33155;48.370;-3.750;2022-09-30T08:17:53;0.60;;;0.40;;
47401;SDS011;33155;48.370;-3.750;2022-09-30T08:20:18;0.60;;;0.40;;
47401;SDS011;33155;48.370;-3.750;2022-09-30T08:22:44;0.93;;;0.70;;
47401;SDS011;33155;48.370;-3.750;2022-09-30T08:25:09;1.85;;;1.08;;
47401;SDS011;33155;48.370;-3.750;2022-09-30T08:27:35;0.73;;;0.50;;
47401;SDS011;33155;48.370;-3.750;2022-09-30T08:30:01;0.38;;;0.30;;
47401;SDS011;33155;48.370;-3.750;2022-09-30T08:32:30;0.70;;;0.55;;
47401;SDS011;33155;48.370;-3.750;2022-09-30T08:34:55;0.77;;;0.50;;
47401;SDS011;33155;48.370;-3.750;2022-09-30T08:37:21;1.00;;;0.77;;
47401;SDS011;33155;48.370;-3.750;2022-09-30T08:39:47;0.55;;;0.32;;
47401;SDS011;33155;48.370;-3.750;2022-09-30T08:53:08;1.75;;;0.32;;
47401;SDS011;33155;48.370;-3.750;2022-09-30T08:55:41;0.30;;;0.30;;
47401;SDS011;33155;48.370;-3.750;2022-09-30T08:58:21;0.45;;;0.40;;
47401;SDS011;33155;48.370;-3.750;2022-09-30T09:00:53;0.70;;;0.30;;
47401;SDS011;33155;48.370;-3.750;2022-09-30T09:03:21;1.02;;;0.70;;
47401;SDS011;33155;48.370;-3.750;2022-09-30T09:17:02;2.25;;;1.48;;
47401;SDS011;33155;48.370;-3.750;2022-09-30T09:19:42;3.78;;;1.30;;
47401;SDS011;33155;48.370;-3.750;2022-09-30T09:22:12;3.38;;;1.83;;
47401;SDS011;33155;48.370;-3.750;2022-09-30T09:27:11;3.90;;;2.55;;
47401;SDS011;33155;48.370;-3.750;2022-09-30T09:32:31;2.85;;;1.75;;
47401;SDS011;33155;48.370;-3.750;2022-09-30T09:34:59;2.47;;;1.75;;
47401;SDS011;33155;48.370;-3.750;2022-09-30T09:42:57;1.17;;;1.00;;
47401;SDS011;33155;48.370;-3.750;2022-09-30T09:45:48;2.92;;;2.10;;
47401;SDS011;33155;48.370;-3.750;2022-09-30T09:48:21;2.95;;;1.77;;
47401;SDS011;33155;48.370;-3.750;2022-09-30T09:51:30;2.25;;;1.50;;
47401;SDS011;33155;48.370;-3.750;2022-09-30T09:53:42;3.07;;;1.73;;
47401;SDS011;33155;48.370;-3.750;2022-09-30T09:56:17;3.45;;;2.13;;
47401;SDS011;33155;48.370;-3.750;2022-09-30T09:59:05;2.67;;;1.95;;
47401;SDS011;33155;48.370;-3.750;2022-09-30T10:01:31;1.45;;;1.15;;
47401;SDS011;33155;48.370;-3.750;2022-09-30T10:04:46;2.72;;;1.65;;
47401;SDS011;33155;48.370;-3.750;2022-09-30T10:06:52;2.60;;;1.50;;
47401;SDS011;33155;48.370;-3.750;2022-09-30T10:09:23;5.15;;;3.58;;
47401;SDS011;33155;48.370;-3.750;2022-09-30T10:14:34;4.85;;;2.40;;
47401;SDS011;33155;48.370;-3.750;2022-09-30T10:17:25;5.18;;;3.70;;
47401;SDS011;33155;48.370;-3.750;2022-09-30T10:20:00;5.97;;;2.80;;
47401;SDS011;33155;48.370;-3.750;2022-09-30T10:22:43;5.88;;;4.28;;
47401;SDS011;33155;48.370;-3.750;2022-09-30T10:27:39;7.00;;;4.82;;
47401;SDS011;33155;48.370;-3.750;2022-09-30T10:30:36;6.20;;;4.50;;
47401;SDS011;33155;48.370;-3.750;2022-09-30T10:33:09;5.47;;;3.85;;
47401;SDS011;33155;48.370;-3.750;2022-09-30T10:35:46;5.00;;;3.88;;
47401;SDS011;33155;48.370;-3.750;2022-09-30T10:38:34;8.38;;;5.43;;
47401;SDS011;33155;48.370;-3.750;2022-09-30T10:41:00;8.13;;;5.93;;
47401;SDS011;33155;48.370;-3.750;2022-09-30T10:43:28;6.05;;;4.30;;
47401;SDS011;33155;48.370;-3.750;2022-09-30T10:45:58;8.90;;;5.32;;
47401;SDS011;33155;48.370;-3.750;2022-09-30T10:48:28;7.72;;;5.20;;
47401;SDS011;33155;48.370;-3.750;2022-09-30T10:50:58;7.18;;;5.32;;
47401;SDS011;33155;48.370;-3.750;2022-09-30T10:53:25;6.70;;;4.63;;
47401;SDS011;33155;48.370;-3.750;2022-09-30T10:55:54;5.50;;;4.10;;
47401;SDS011;33155;48.370;-3.750;2022-09-30T11:06:32;5.60;;;4.05;;
47401;SDS011;33155;48.370;-3.750;2022-09-30T11:09:16;5.85;;;4.53;;
47401;SDS011;33155;48.370;-3.750;2022-09-30T11:11:52;8.30;;;4.57;;
47401;SDS011;33155;48.370;-3.750;2022-09-30T11:14:34;6.40;;;4.38;;
47401;SDS011;33155;48.370;-3.750;2022-09-30T11:17:22;4.55;;;3.75;;
47401;SDS011;33155;48.370;-3.750;2022-09-30T11:19:58;6.68;;;4.70;;
47401;SDS011;33155;48.370;-3.750;2022-09-30T11:25:14;4.43;;;3.25;;
47401;SDS011;33155;48.370;-3.750;2022-09-30T11:33:05;5.65;;;4.03;;
47401;SDS011;33155;48.370;-3.750;2022-09-30T11:41:03;5.32;;;2.72;;
47401;SDS011;33155;48.370;-3.750;2022-09-30T11:54:29;2.80;;;2.20;;
47401;SDS011;33155;48.370;-3.750;2022-09-30T11:59:52;5.18;;;2.30;;
47401;SDS011;33155;48.370;-3.750;2022-09-30T12:04:50;4.15;;;2.30;;
47401;SDS011;33155;48.370;-3.750;2022-09-30T12:07:34;6.85;;;2.50;;
47401;SDS011;33155;48.370;-3.750;2022-09-30T12:10:04;4.35;;;2.50;;
47401;SDS011;33155;48.370;-3.750;2022-09-30T12:12:39;6.75;;;3.10;;
47401;SDS011;33155;48.370;-3.750;2022-09-30T12:15:05;4.10;;;2.30;;
47401;SDS011;33155;48.370;-3.750;2022-09-30T12:17:37;6.25;;;3.00;;
47401;SDS011;33155;48.370;-3.750;2022-09-30T12:20:50;7.70;;;2.83;;
47401;SDS011;33155;48.370;-3.750;2022-09-30T12:25:38;5.20;;;2.13;;
47401;SDS011;33155;48.370;-3.750;2022-09-30T12:28:07;4.63;;;2.08;;
47401;SDS011;33155;48.370;-3.750;2022-09-30T12:36:56;2.80;;;1.60;;
47401;SDS011;33155;48.370;-3.750;2022-09-30T12:48:36;5.25;;;2.67;;
47401;SDS011;33155;48.370;-3.750;2022-09-30T12:51:05;4.32;;;1.40;;
47401;SDS011;33155;48.370;-3.750;2022-09-30T12:53:32;5.05;;;1.90;;
47401;SDS011;33155;48.370;-3.750;2022-09-30T12:56:01;1.23;;;0.85;;
47401;SDS011;33155;48.370;-3.750;2022-09-30T12:58:33;3.60;;;1.40;;
47401;SDS011;33155;48.370;-3.750;2022-09-30T13:03:42;1.80;;;0.98;;
47401;SDS011;33155;48.370;-3.750;2022-09-30T13:06:20;3.17;;;0.90;;
47401;SDS011;33155;48.370;-3.750;2022-09-30T13:08:47;3.70;;;0.70;;
47401;SDS011;33155;48.370;-3.750;2022-09-30T13:11:34;4.85;;;0.77;;
47401;SDS011;33155;48.370;-3.750;2022-09-30T13:14:03;3.88;;;0.80;;
47401;SDS011;33155;48.370;-3.750;2022-09-30T13:16:57;3.55;;;1.13;;
47401;SDS011;33155;48.370;-3.750;2022-09-30T13:19:29;1.92;;;0.50;;
47401;SDS011;33155;48.370;-3.750;2022-09-30T13:30:02;2.47;;;0.68;;
47401;SDS011;33155;48.370;-3.750;2022-09-30T13:43:21;1.70;;;0.60;;
47401;SDS011;33155;48.370;-3.750;2022-09-30T13:45:51;1.27;;;0.30;;
47401;SDS011;33155;48.370;-3.750;2022-09-30T13:48:22;1.45;;;0.45;;
47401;SDS011;33155;48.370;-3.750;2022-09-30T13:50:52;1.10;;;0.70;;
47401;SDS011;33155;48.370;-3.750;2022-09-30T13:53:29;0.70;;;0.45;;
47401;SDS011;33155;48.370;-3.750;2022-09-30T13:55:58;0.77;;;0.45;;
47401;SDS011;33155;48.370;-3.750;2022-09-30T13:58:34;2.42;;;0.60;;
47401;SDS011;33155;48.370;-3.750;2022-09-30T14:06:45;1.98;;;0.73;;
47401;SDS011;33155;48.370;-3.750;2022-09-30T14:09:39;2.92;;;0.77;;
47401;SDS011;33155;48.370;-3.750;2022-09-30T14:12:30;2.50;;;0.50;;
47401;SDS011;33155;48.370;-3.750;2022-09-30T14:15:10;0.80;;;0.45;;
47401;SDS011;33155;48.370;-3.750;2022-09-30T14:23:15;5.43;;;0.80;;
47401;SDS011;33155;48.370;-3.750;2022-09-30T14:25:53;1.98;;;0.55;;
47401;SDS011;33155;48.370;-3.750;2022-09-30T14:28:34;1.85;;;0.60;;
47401;SDS011;33155;48.370;-3.750;2022-09-30T14:31:04;5.22;;;2.88;;
47401;SDS011;33155;48.370;-3.750;2022-09-30T14:33:32;5.88;;;2.53;;
47401;SDS011;33155;48.370;-3.750;2022-09-30T14:36:02;4.40;;;2.10;;
47401;SDS011;33155;48.370;-3.750;2022-09-30T14:38:34;2.45;;;1.30;;
47401;SDS011;33155;48.370;-3.750;2022-09-30T14:41:01;3.45;;;1.38;;
47401;SDS011;33155;48.370;-3.750;2022-09-30T14:43:33;3.97;;;1.08;;
47401;SDS011;33155;48.370;-3.750;2022-09-30T14:46:04;4.88;;;1.10;;
47401;SDS011;33155;48.370;-3.750;2022-09-30T14:48:32;4.32;;;0.95;;
47401;SDS011;33155;48.370;-3.750;2022-09-30T14:53:37;1.25;;;0.60;;
47401;SDS011;33155;48.370;-3.750;2022-09-30T14:59:10;2.58;;;1.10;;
47401;SDS011;33155;48.370;-3.750;2022-09-30T15:01:43;1.90;;;0.90;;
47401;SDS011;33155;48.370;-3.750;2022-09-30T15:04:23;2.25;;;1.17;;
47401;SDS011;33155;48.370;-3.750;2022-09-30T15:06:59;2.53;;;1.58;;
47401;SDS011;33155;48.370;-3.750;2022-09-30T15:09:28;1.10;;;0.93;;
47401;SDS011;33155;48.370;-3.750;2022-09-30T15:12:01;4.97;;;1.33;;
47401;SDS011;33155;48.370;-3.750;2022-09-30T15:14:28;3.50;;;1.42;;
47401;SDS011;33155;48.370;-3.750;2022-09-30T15:16:56;2.88;;;0.88;;
47401;SDS011;33155;48.370;-3.750;2022-09-30T15:19:30;1.73;;;0.70;;
47401;SDS011;33155;48.370;-3.750;2022-09-30T15:21:59;2.50;;;1.23;;
47401;SDS011;33155;48.370;-3.750;2022-09-30T15:24:26;1.40;;;0.70;;
47401;SDS011;33155;48.370;-3.750;2022-09-30T15:26:55;1.13;;;0.70;;
47401;SDS011;33155;48.370;-3.750;2022-09-30T15:29:21;3.38;;;0.82;;
47401;SDS011;33155;48.370;-3.750;2022-09-30T15:32:32;4.00;;;1.00;;
47401;SDS011;33155;48.370;-3.750;2022-09-30T15:34:39;5.90;;;1.00;;
47401;SDS011;33155;48.370;-3.750;2022-09-30T15:37:14;1.75;;;0.80;;
47401;SDS011;33155;48.370;-3.750;2022-09-30T15:39:45;2.30;;;0.90;;
47401;SDS011;33155;48.370;-3.750;2022-09-30T15:45:27;4.10;;;0.98;;
47401;SDS011;33155;48.370;-3.750;2022-09-30T15:50:38;4.55;;;0.85;;
47401;SDS011;33155;48.370;-3.750;2022-09-30T15:53:19;5.07;;;1.20;;
47401;SDS011;33155;48.370;-3.750;2022-09-30T15:55:55;7.88;;;1.02;;
47401;SDS011;33155;48.370;-3.750;2022-09-30T15:58:40;2.85;;;1.13;;
47401;SDS011;33155;48.370;-3.750;2022-09-30T16:03:46;4.57;;;1.48;;
47401;SDS011;33155;48.370;-3.750;2022-09-30T16:06:14;1.95;;;1.00;;
47401;SDS011;33155;48.370;-3.750;2022-09-30T16:08:41;1.73;;;1.13;;
47401;SDS011;33155;48.370;-3.750;2022-09-30T16:11:08;3.63;;;1.13;;
47401;SDS011;33155;48.370;-3.750;2022-09-30T16:13:34;2.00;;;0.82;;
47401;SDS011;33155;48.370;-3.750;2022-09-30T16:16:00;2.15;;;0.98;;
47401;SDS011;33155;48.370;-3.750;2022-09-30T16:18:26;1.88;;;1.05;;
47401;SDS011;33155;48.370;-3.750;2022-09-30T16:23:26;2.90;;;0.90;;
47401;SDS011;33155;48.370;-3.750;2022-09-30T16:28:41;7.03;;;1.15;;
47401;SDS011;33155;48.370;-3.750;2022-09-30T16:31:09;5.50;;;1.20;;
47401;SDS011;33155;48.370;-3.750;2022-09-30T16:33:36;2.28;;;0.98;;
47401;SDS011;33155;48.370;-3.750;2022-09-30T16:36:05;4.50;;;1.25;;
47401;SDS011;33155;48.370;-3.750;2022-09-30T16:38:32;2.03;;;0.77;;
47401;SDS011;33155;48.370;-3.750;2022-09-30T16:40:57;4.80;;;1.02;;
47401;SDS011;33155;48.370;-3.750;2022-09-30T16:43:24;1.88;;;0.88;;
47401;SDS011;33155;48.370;-3.750;2022-09-30T16:45:51;6.93;;;1.20;;
47401;SDS011;33155;48.370;-3.750;2022-09-30T16:48:17;3.47;;;0.90;;
47401;SDS011;33155;48.370;-3.750;2022-09-30T16:50:52;2.78;;;0.95;;
47401;SDS011;33155;48.370;-3.750;2022-09-30T16:53:21;2.72;;;1.05;;
47401;SDS011;33155;48.370;-3.750;2022-09-30T16:55:47;1.25;;;0.70;;
47401;SDS011;33155;48.370;-3.750;2022-09-30T16:58:12;2.00;;;1.00;;
47401;SDS011;33155;48.370;-3.750;2022-09-30T17:00:42;2.97;;;1.00;;
47401;SDS011;33155;48.370;-3.750;2022-09-30T17:03:09;2.05;;;1.42;;
47401;SDS011;33155;48.370;-3.750;2022-09-30T17:05:38;5.07;;;1.30;;
47401;SDS011;33155;48.370;-3.750;2022-09-30T17:08:04;2.90;;;0.88;;
47401;SDS011;33155;48.370;-3.750;2022-09-30T17:10:30;2.80;;;1.10;;
47401;SDS011;33155;48.370;-3.750;2022-09-30T17:12:57;4.10;;;1.15;;
47401;SDS011;33155;48.370;-3.750;2022-09-30T17:15:24;1.88;;;1.00;;
47401;SDS011;33155;48.370;-3.750;2022-09-30T17:17:50;3.47;;;1.13;;
47401;SDS011;33155;48.370;-3.750;2022-09-30T17:20:17;2.28;;;1.20;;
47401;SDS011;33155;48.370;-3.750;2022-09-30T17:22:43;4.35;;;1.10;;
47401;SDS011;33155;48.370;-3.750;2022-09-30T17:25:09;4.95;;;1.30;;
47401;SDS011;33155;48.370;-3.750;2022-09-30T17:27:35;6.28;;;1.65;;
47401;SDS011;33155;48.370;-3.750;2022-09-30T17:30:02;1.92;;;0.95;;
47401;SDS011;33155;48.370;-3.750;2022-09-30T17:32:28;4.47;;;0.98;;
47401;SDS011;33155;48.370;-3.750;2022-09-30T17:34:53;2.53;;;1.00;;
47401;SDS011;33155;48.370;-3.750;2022-09-30T17:37:19;2.55;;;0.75;;
47401;SDS011;33155;48.370;-3.750;2022-09-30T17:39:45;2.35;;;1.02;;
47401;SDS011;33155;48.370;-3.750;2022-09-30T17:42:11;1.38;;;0.98;;
47401;SDS011;33155;48.370;-3.750;2022-09-30T17:44:56;4.35;;;1.27;;
47401;SDS011;33155;48.370;-3.750;2022-09-30T17:47:22;2.20;;;0.70;;
47401;SDS011;33155;48.370;-3.750;2022-09-30T17:49:47;2.25;;;0.93;;
47401;SDS011;33155;48.370;-3.750;2022-09-30T17:52:13;3.10;;;0.85;;
47401;SDS011;33155;48.370;-3.750;2022-09-30T17:54:39;1.95;;;0.75;;
47401;SDS011;33155;48.370;-3.750;2022-09-30T17:57:05;0.98;;;0.60;;
47401;SDS011;33155;48.370;-3.750;2022-09-30T17:59:31;2.45;;;1.13;;
47401;SDS011;33155;48.370;-3.750;2022-09-30T18:01:56;0.70;;;0.50;;
47401;SDS011;33155;48.370;-3.750;2022-09-30T18:04:22;2.38;;;0.82;;
47401;SDS011;33155;48.370;-3.750;2022-09-30T18:06:50;1.30;;;0.50;;
47401;SDS011;33155;48.370;-3.750;2022-09-30T18:09:19;1.23;;;0.63;;
47401;SDS011;33155;48.370;-3.750;2022-09-30T18:11:45;0.70;;;0.47;;
47401;SDS011;33155;48.370;-3.750;2022-09-30T18:14:11;1.48;;;0.63;;
47401;SDS011;33155;48.370;-3.750;2022-09-30T18:16:37;1.10;;;0.63;;
47401;SDS011;33155;48.370;-3.750;2022-09-30T18:19:04;0.75;;;0.60;;
47401;SDS011;33155;48.370;-3.750;2022-09-30T18:21:31;0.55;;;0.50;;
47401;SDS011;33155;48.370;-3.750;2022-09-30T18:23:57;1.05;;;0.80;;
47401;SDS011;33155;48.370;-3.750;2022-09-30T18:26:23;0.98;;;0.68;;
47401;SDS011;33155;48.370;-3.750;2022-09-30T18:28:49;0.30;;;0.30;;
47401;SDS011;33155;48.370;-3.750;2022-09-30T18:31:17;1.30;;;0.50;;
47401;SDS011;33155;48.370;-3.750;2022-09-30T18:33:54;0.30;;;0.30;;
47401;SDS011;33155;48.370;-3.750;2022-09-30T18:36:21;0.95;;;0.38;;
47401;SDS011;33155;48.370;-3.750;2022-09-30T18:38:47;1.05;;;0.40;;
47401;SDS011;33155;48.370;-3.750;2022-09-30T18:41:13;0.90;;;0.50;;
47401;SDS011;33155;48.370;-3.750;2022-09-30T18:43:39;0.82;;;0.30;;
47401;SDS011;33155;48.370;-3.750;2022-09-30T18:46:05;0.45;;;0.30;;
47401;SDS011;33155;48.370;-3.750;2022-09-30T18:48:33;0.50;;;0.35;;
47401;SDS011;33155;48.370;-3.750;2022-09-30T18:51:03;0.35;;;0.35;;
47401;SDS011;33155;48.370;-3.750;2022-09-30T18:53:29;0.50;;;0.32;;
47401;SDS011;33155;48.370;-3.750;2022-09-30T18:55:58;0.28;;;0.20;;
47401;SDS011;33155;48.370;-3.750;2022-09-30T18:58:25;3.25;;;0.28;;
47401;SDS011;33155;48.370;-3.750;2022-09-30T19:00:51;0.40;;;0.30;;
47401;SDS011;33155;48.370;-3.750;2022-09-30T19:03:17;0.60;;;0.20;;
47401;SDS011;33155;48.370;-3.750;2022-09-30T19:05:43;2.05;;;0.30;;
47401;SDS011;33155;48.370;-3.750;2022-09-30T19:08:08;0.20;;;0.20;;
47401;SDS011;33155;48.370;-3.750;2022-09-30T19:10:37;0.57;;;0.15;;
47401;SDS011;33155;48.370;-3.750;2022-09-30T19:13:04;0.52;;;0.32;;
47401;SDS011;33155;48.370;-3.750;2022-09-30T19:15:29;2.92;;;0.93;;
47401;SDS011;33155;48.370;-3.750;2022-09-30T19:17:55;2.08;;;0.77;;
47401;SDS011;33155;48.370;-3.750;2022-09-30T19:20:20;5.20;;;0.80;;
47401;SDS011;33155;48.370;-3.750;2022-09-30T19:22:47;3.67;;;0.73;;
47401;SDS011;33155;48.370;-3.750;2022-09-30T19:25:15;5.60;;;1.10;;
47401;SDS011;33155;48.370;-3.750;2022-09-30T19:27:42;2.83;;;1.30;;
47401;SDS011;33155;48.370;-3.750;2022-09-30T19:30:09;3.92;;;1.10;;
47401;SDS011;33155;48.370;-3.750;2022-09-30T19:32:36;4.68;;;1.55;;
47401;SDS011;33155;48.370;-3.750;2022-09-30T19:35:05;2.88;;;0.90;;
47401;SDS011;33155;48.370;-3.750;2022-09-30T19:37:36;1.20;;;0.90;;
47401;SDS011;33155;48.370;-3.750;2022-09-30T19:40:02;3.63;;;0.77;;
47401;SDS011;33155;48.370;-3.750;2022-09-30T19:42:29;1.50;;;0.65;;
47401;SDS011;33155;48.370;-3.750;2022-09-30T19:44:56;5.35;;;1.02;;
47401;SDS011;33155;48.370;-3.750;2022-09-30T19:47:22;2.08;;;0.80;;
47401;SDS011;33155;48.370;-3.750;2022-09-30T19:49:47;2.58;;;0.93;;
47401;SDS011;33155;48.370;-3.750;2022-09-30T19:52:13;0.80;;;0.55;;
47401;SDS011;33155;48.370;-3.750;2022-09-30T19:54:41;0.82;;;0.77;;
47401;SDS011;33155;48.370;-3.750;2022-09-30T19:57:07;1.15;;;0.50;;
47401;SDS011;33155;48.370;-3.750;2022-09-30T19:59:32;2.05;;;0.55;;
